Campbell AAF (Fort Campbell) Air Field
KHOP : now visible

Airfield :











YOU CAN JOIN US ON...

 
LOGIN :

Register | Disclaimer

   EN    FR    IT 

 









Legend :    VFR   Marginal VFR   IFR   Intensive IFR   Very Intensive IFR
Visi :
Ceiling :
>= 8 km
>= 3000ft
5 to 8 km
1000 to 3000 ft
1500m to 5 km
500 to 1000 ft
800 to 1500m
200 to 500 ft
< 800m
< 200 ft
Symbols :   Thunderstorms  Fog  Heavy snow  Heavy precipitations  Wind > 20 kt






- Airport Elevation : 573 ft


KHOP - Campbell AAF (Fort Campbell) Air Field

CURRENT METAR :
  • 282356Z 31005KT 10SM CLR 16/11 A2991 RMK AO2A SLP128 60001 T01620109 10192 20147 52016 $

EXPIRED METARs :
  • 282256Z 29012KT 10SM FEW055 19/11 A2989 RMK AO2A SLP121 T01880114 $
  • 282156Z 29011KT 10SM SCT038 19/12 A2987 RMK AO2A SLP114 T01880121 $

TAF TAF KHOP
Valid from the 29 at 00:00 until the 30 at 06:00 UTC


290000Z 2900/3006 30006KT 9999 SCT030 QNH2990INS
BECMG 2907/2908 30006KT 8000 BR SCT030 QNH2998INS
BECMG 2914/2915 30006KT 9999 NSW SCT030 QNH2998INS
BECMG 2917/2918 29009KT 9999 SCT050 QNH2993INS
BECMG 2923/2924 27006KT 9999 SCT050 QNH2993INS TX16/3000Z TN10/2909Z
KZME FIR / North America



MET'MAP, your aeronautical weather chart ! - Copyright ORBIFLY December 2007 - Disclaimer

ORBIFLY MET'MAP TEAM :

Programming & Development : Alexandra Zaïnal
Concept & original design : Baudouin d'Aumeries
Assistance for programming : Marc-Olivier Méhu
Technical & hardware support : Manuel Goepfert

Contact : metmap@orbifly.com




SOURCES & CREDITS :

   NOAA       Earth
Advisory